Time;durP1;ratioP1;P1;durP2;ratioP2;P2;SDS_P1;SDS_P2;PMS_P1;PMS_P2;Temp;Humidity;BMP_temperature;BMP_pressure;BME280_temperature;BME280_humidity;BME280_pressure;Samples;Min_cycle;Max_cycle;Signal;HPM_P1;HPM_P2
2022/08/09 00:00:27;;;;;;;21.40;20.30;;;;;;;;;;5095782;28;20414;-85
2022/08/09 00:02:55;;;;;;;20.77;19.67;;;;;;;;;;5095374;28;20446;-84
2022/08/09 00:05:22;;;;;;;21.83;20.60;;;;;;;;;;5095631;28;20440;-85
2022/08/09 00:07:49;;;;;;;21.90;20.80;;;;;;;;;;5095723;28;20812;-85
2022/08/09 00:10:17;;;;;;;21.90;20.60;;;;;;;;;;5095458;28;20463;-84
2022/08/09 00:12:44;;;;;;;21.57;20.47;;;;;;;;;;5095329;28;20474;-85
2022/08/09 00:15:11;;;;;;;21.53;20.20;;;;;;;;;;5095500;28;20499;-85
2022/08/09 00:17:40;;;;;;;21.07;19.90;;;;;;;;;;5095478;28;20433;-85
2022/08/09 00:20:08;;;;;;;21.10;19.93;;;;;;;;;;5095105;28;20459;-85
2022/08/09 00:22:36;;;;;;;22.43;21.10;;;;;;;;;;5095208;28;20425;-85
2022/08/09 00:25:03;;;;;;;21.97;20.70;;;;;;;;;;5095230;28;20445;-85
2022/08/09 00:27:30;;;;;;;22.20;21.00;;;;;;;;;;5095199;28;20418;-85
2022/08/09 00:29:58;;;;;;;21.83;20.67;;;;;;;;;;5095045;28;20784;-85
2022/08/09 00:32:25;;;;;;;22.10;20.90;;;;;;;;;;5094710;28;20524;-84
2022/08/09 00:34:54;;;;;;;22.07;20.57;;;;;;;;;;5095050;28;20430;-85
2022/08/09 00:37:21;;;;;;;21.90;20.20;;;;;;;;;;5095022;28;20407;-84
2022/08/09 00:39:48;;;;;;;21.47;20.27;;;;;;;;;;5094664;28;20809;-85
2022/08/09 00:42:16;;;;;;;21.83;20.60;;;;;;;;;;5094714;28;20448;-84
2022/08/09 00:44:44;;;;;;;22.10;20.90;;;;;;;;;;5094968;28;20479;-85
2022/08/09 00:47:11;;;;;;;21.50;20.20;;;;;;;;;;5094565;28;20426;-85
2022/08/09 00:49:39;;;;;;;21.20;19.80;;;;;;;;;;5093314;28;20442;-84
2022/08/09 00:52:08;;;;;;;21.73;20.53;;;;;;;;;;5094834;28;20457;-84
2022/08/09 00:54:35;;;;;;;20.80;19.70;;;;;;;;;;5094184;28;20421;-84
2022/08/09 00:57:03;;;;;;;21.37;20.27;;;;;;;;;;5094412;28;20400;-83
2022/08/09 00:59:30;;;;;;;21.90;20.57;;;;;;;;;;5093589;28;20426;-84
2022/08/09 01:01:59;;;;;;;21.40;20.10;;;;;;;;;;5093343;28;20408;-84
2022/08/09 01:04:31;;;;;;;22.17;21.00;;;;;;;;;;5094602;28;20442;-84
2022/08/09 01:07:00;;;;;;;21.40;20.30;;;;;;;;;;5094408;28;20451;-85
2022/08/09 01:09:33;;;;;;;22.33;20.70;;;;;;;;;;5094526;28;20773;-84
2022/08/09 01:12:03;;;;;;;22.00;20.60;;;;;;;;;;5093977;28;20877;-84
2022/08/09 01:14:32;;;;;;;21.57;20.37;;;;;;;;;;5094208;28;20446;-85
2022/08/09 01:17:03;;;;;;;20.97;19.77;;;;;;;;;;5094141;28;20459;-85
2022/08/09 01:19:36;;;;;;;21.00;19.90;;;;;;;;;;5094358;28;20444;-85
2022/08/09 01:22:16;;;;;;;21.27;20.10;;;;;;;;;;5094106;28;20762;-85
2022/08/09 01:24:55;;;;;;;21.70;20.43;;;;;;;;;;5094062;28;20414;-84
2022/08/09 01:27:25;;;;;;;21.67;20.03;;;;;;;;;;5093529;28;20477;-85
2022/08/09 01:29:54;;;;;;;21.67;20.47;;;;;;;;;;5094060;28;20440;-83
2022/08/09 01:32:24;;;;;;;21.60;20.30;;;;;;;;;;5092640;28;20446;-84
2022/08/09 01:34:54;;;;;;;22.60;21.00;;;;;;;;;;5094004;28;20535;-84
2022/08/09 01:37:24;;;;;;;21.27;20.07;;;;;;;;;;5094075;28;20418;-84
2022/08/09 01:39:53;;;;;;;21.57;20.27;;;;;;;;;;5093671;28;20483;-85
2022/08/09 01:42:20;;;;;;;21.90;20.70;;;;;;;;;;5093780;28;20436;-85
2022/08/09 01:44:49;;;;;;;21.30;20.10;;;;;;;;;;5093799;28;20442;-84
2022/08/09 01:47:17;;;;;;;22.17;20.97;;;;;;;;;;5093575;28;20417;-84
2022/08/09 01:49:46;;;;;;;21.50;20.30;;;;;;;;;;5093642;28;20467;-84
2022/08/09 01:52:15;;;;;;;21.13;19.80;;;;;;;;;;5093265;28;20494;-85
2022/08/09 01:54:45;;;;;;;21.77;20.47;;;;;;;;;;5092281;28;20452;-84
2022/08/09 01:57:13;;;;;;;21.87;20.63;;;;;;;;;;5093393;28;20542;-85
2022/08/09 01:59:42;;;;;;;22.20;20.80;;;;;;;;;;5092374;28;20940;-85
2022/08/09 02:02:12;;;;;;;21.40;20.20;;;;;;;;;;5093578;28;20446;-85
2022/08/09 02:04:40;;;;;;;21.63;20.13;;;;;;;;;;5093294;28;20460;-84
2022/08/09 02:07:08;;;;;;;20.80;19.70;;;;;;;;;;5093710;28;20418;-84
2022/08/09 02:09:37;;;;;;;21.27;20.10;;;;;;;;;;5093404;28;20417;-84
2022/08/09 02:12:06;;;;;;;21.80;20.30;;;;;;;;;;5092023;28;20490;-85
2022/08/09 02:14:34;;;;;;;21.90;20.50;;;;;;;;;;5097009;28;20794;-85
2022/08/09 02:17:02;;;;;;;21.30;20.10;;;;;;;;;;5096451;28;20424;-83
2022/08/09 02:19:31;;;;;;;20.20;19.10;;;;;;;;;;5097821;28;20417;-84
2022/08/09 02:22:00;;;;;;;21.93;20.47;;;;;;;;;;5096227;28;20973;-85
2022/08/09 02:24:30;;;;;;;22.37;20.97;;;;;;;;;;5097296;28;20553;-83
2022/08/09 02:26:59;;;;;;;21.13;19.83;;;;;;;;;;5095455;28;20508;-83
2022/08/09 02:29:29;;;;;;;20.27;19.17;;;;;;;;;;5097139;28;20794;-83
2022/08/09 02:31:58;;;;;;;21.40;19.93;;;;;;;;;;5096965;28;20457;-83
2022/08/09 02:34:27;;;;;;;20.90;19.67;;;;;;;;;;5096780;28;20415;-83
2022/08/09 02:36:57;;;;;;;21.00;19.90;;;;;;;;;;5096867;28;20435;-83
2022/08/09 02:39:27;;;;;;;21.00;19.87;;;;;;;;;;5096594;28;21318;-83
2022/08/09 02:41:58;;;;;;;21.80;20.30;;;;;;;;;;5096588;28;20434;-84
2022/08/09 02:44:27;;;;;;;20.27;19.10;;;;;;;;;;5096794;28;20425;-84
2022/08/09 02:46:56;;;;;;;20.73;19.50;;;;;;;;;;5096883;28;20456;-84
2022/08/09 02:49:23;;;;;;;21.40;20.23;;;;;;;;;;5096784;28;20796;-83
2022/08/09 02:51:52;;;;;;;21.00;19.80;;;;;;;;;;5096573;28;20462;-84
2022/08/09 02:54:21;;;;;;;21.07;19.80;;;;;;;;;;5096680;28;20542;-84
2022/08/09 02:56:49;;;;;;;20.47;19.20;;;;;;;;;;5096666;28;20450;-84
2022/08/09 02:59:17;;;;;;;21.63;20.13;;;;;;;;;;5096325;28;20416;-84
2022/08/09 03:01:46;;;;;;;21.27;19.80;;;;;;;;;;5096458;28;20463;-83
2022/08/09 03:04:14;;;;;;;21.97;20.37;;;;;;;;;;5096231;28;20403;-83
2022/08/09 03:06:42;;;;;;;20.90;19.80;;;;;;;;;;5096208;28;20407;-83
2022/08/09 03:09:10;;;;;;;21.90;20.60;;;;;;;;;;5096202;28;20448;-84
2022/08/09 03:11:39;;;;;;;21.60;20.17;;;;;;;;;;5096333;28;20419;-83
2022/08/09 03:14:07;;;;;;;21.53;20.23;;;;;;;;;;5096212;28;20455;-83
2022/08/09 03:16:35;;;;;;;20.93;19.83;;;;;;;;;;5096229;28;20417;-83
2022/08/09 03:19:03;;;;;;;21.47;20.23;;;;;;;;;;5096291;28;20405;-84
2022/08/09 03:21:30;;;;;;;21.60;20.10;;;;;;;;;;5094917;28;20504;-83
2022/08/09 03:23:58;;;;;;;21.67;20.37;;;;;;;;;;5095001;28;20535;-84
2022/08/09 03:26:25;;;;;;;20.17;19.07;;;;;;;;;;5094974;28;20467;-84
2022/08/09 03:28:57;;;;;;;21.07;19.70;;;;;;;;;;5096051;28;20443;-84
2022/08/09 03:31:26;;;;;;;20.97;19.77;;;;;;;;;;5095612;28;20831;-83
2022/08/09 03:33:53;;;;;;;21.00;19.80;;;;;;;;;;5095908;28;20484;-83
2022/08/09 03:36:21;;;;;;;21.70;20.27;;;;;;;;;;5095830;28;20413;-83
2022/08/09 03:38:48;;;;;;;20.93;19.83;;;;;;;;;;5095509;28;20407;-83
2022/08/09 03:41:16;;;;;;;21.50;20.03;;;;;;;;;;5095472;28;20436;-83
2022/08/09 03:43:44;;;;;;;21.60;20.13;;;;;;;;;;5095841;28;20409;-83
2022/08/09 03:46:13;;;;;;;21.20;19.87;;;;;;;;;;5094321;28;20514;-83
2022/08/09 03:48:41;;;;;;;20.67;19.27;;;;;;;;;;5095298;28;20998;-83
2022/08/09 03:51:09;;;;;;;20.83;19.63;;;;;;;;;;5094158;28;20483;-84
2022/08/09 03:53:38;;;;;;;21.13;19.57;;;;;;;;;;5095446;28;20562;-83
2022/08/09 03:56:06;;;;;;;20.47;19.27;;;;;;;;;;5095429;28;20416;-83
2022/08/09 03:58:33;;;;;;;20.80;19.60;;;;;;;;;;5095494;28;20809;-83
2022/08/09 04:01:01;;;;;;;21.40;20.10;;;;;;;;;;5093790;28;20574;-84
2022/08/09 04:03:31;;;;;;;21.63;20.13;;;;;;;;;;5093843;28;20938;-83
2022/08/09 04:05:58;;;;;;;20.60;19.20;;;;;;;;;;5095289;28;20740;-83
2022/08/09 04:08:25;;;;;;;20.60;19.30;;;;;;;;;;5095319;28;20507;-83
2022/08/09 04:10:53;;;;;;;21.30;19.90;;;;;;;;;;5095212;28;20417;-83
2022/08/09 04:13:20;;;;;;;20.77;19.47;;;;;;;;;;5095064;28;20487;-83
2022/08/09 04:15:48;;;;;;;21.50;20.10;;;;;;;;;;5095060;28;20953;-83
2022/08/09 04:18:15;;;;;;;21.20;20.00;;;;;;;;;;5094735;28;20420;-83
2022/08/09 04:20:44;;;;;;;20.83;19.70;;;;;;;;;;5094726;28;20458;-83
2022/08/09 04:23:12;;;;;;;21.03;19.63;;;;;;;;;;5094889;28;20455;-84
2022/08/09 04:25:39;;;;;;;22.53;20.83;;;;;;;;;;5095053;28;20442;-84
2022/08/09 04:28:06;;;;;;;21.37;20.00;;;;;;;;;;5095124;28;20444;-84
2022/08/09 04:30:34;;;;;;;21.80;20.30;;;;;;;;;;5094744;28;20422;-84
2022/08/09 04:33:01;;;;;;;20.90;19.63;;;;;;;;;;5094681;28;20468;-84
2022/08/09 04:35:28;;;;;;;21.43;20.23;;;;;;;;;;5094740;28;20492;-84
2022/08/09 04:37:57;;;;;;;20.97;19.67;;;;;;;;;;5094912;28;20400;-83
2022/08/09 04:40:46;;;;;;;22.07;20.60;;;;;;;;;;5094024;28;20490;-84
2022/08/09 04:43:12;;;;;;;21.77;20.27;;;;;;;;;;5094274;28;20872;-83
2022/08/09 04:45:40;;;;;;;21.17;19.87;;;;;;;;;;5094459;28;20413;-84
2022/08/09 04:48:07;;;;;;;21.63;20.10;;;;;;;;;;5094306;28;20875;-84
2022/08/09 04:50:34;;;;;;;21.77;20.47;;;;;;;;;;5094333;28;20444;-84
2022/08/09 04:53:06;;;;;;;21.43;19.97;;;;;;;;;;5094230;28;20480;-83
2022/08/09 04:55:33;;;;;;;21.03;19.83;;;;;;;;;;5094332;28;20413;-83
2022/08/09 04:58:01;;;;;;;22.10;20.70;;;;;;;;;;5094213;28;20900;-84
2022/08/09 05:00:28;;;;;;;21.47;19.97;;;;;;;;;;5094226;28;20459;-84
2022/08/09 05:02:55;;;;;;;20.80;19.60;;;;;;;;;;5094337;28;20814;-84
2022/08/09 05:05:23;;;;;;;21.47;20.07;;;;;;;;;;5094357;28;20415;-83
2022/08/09 05:07:50;;;;;;;20.93;19.73;;;;;;;;;;5093882;28;20437;-84
2022/08/09 05:10:19;;;;;;;21.97;20.67;;;;;;;;;;5094137;28;20419;-83
2022/08/09 05:12:46;;;;;;;22.53;21.23;;;;;;;;;;5093865;28;20480;-83
2022/08/09 05:15:14;;;;;;;22.70;21.30;;;;;;;;;;5093689;28;20802;-84
2022/08/09 05:17:41;;;;;;;22.30;21.10;;;;;;;;;;5093854;28;20467;-84
2022/08/09 05:20:09;;;;;;;22.90;21.30;;;;;;;;;;5093938;28;20460;-83
2022/08/09 05:22:36;;;;;;;22.37;21.07;;;;;;;;;;5094225;28;20421;-84
2022/08/09 05:25:05;;;;;;;22.10;20.70;;;;;;;;;;5093931;28;20488;-84
2022/08/09 05:27:34;;;;;;;22.27;20.90;;;;;;;;;;5092721;28;20471;-84
2022/08/09 05:30:01;;;;;;;22.40;20.77;;;;;;;;;;5093884;28;20463;-84
2022/08/09 05:32:29;;;;;;;21.80;20.40;;;;;;;;;;5092751;28;20847;-84
2022/08/09 05:34:56;;;;;;;23.67;21.97;;;;;;;;;;5092433;28;20422;-84
2022/08/09 05:37:24;;;;;;;21.90;20.50;;;;;;;;;;5094318;28;20460;-84
2022/08/09 05:39:52;;;;;;;21.63;20.33;;;;;;;;;;5093347;28;20470;-84
2022/08/09 05:42:19;;;;;;;21.60;20.20;;;;;;;;;;5093460;28;20433;-84
2022/08/09 05:44:48;;;;;;;21.37;19.80;;;;;;;;;;5093873;28;20595;-84
2022/08/09 05:47:15;;;;;;;20.83;19.73;;;;;;;;;;5093568;28;20434;-83
2022/08/09 05:49:43;;;;;;;21.20;19.90;;;;;;;;;;5091942;28;20442;-84
2022/08/09 05:52:10;;;;;;;21.37;20.07;;;;;;;;;;5093134;28;20442;-84
2022/08/09 05:54:38;;;;;;;21.43;20.03;;;;;;;;;;5092570;28;20832;-83
2022/08/09 05:57:05;;;;;;;21.67;20.27;;;;;;;;;;5093048;28;20999;-82
2022/08/09 05:59:33;;;;;;;21.70;20.30;;;;;;;;;;5093092;28;20422;-83
2022/08/09 06:02:02;;;;;;;20.43;19.33;;;;;;;;;;5093078;28;20434;-84
2022/08/09 06:04:29;;;;;;;23.07;21.07;;;;;;;;;;5093231;28;20426;-84
2022/08/09 06:06:56;;;;;;;21.80;20.17;;;;;;;;;;5093362;28;20438;-84
2022/08/09 06:09:24;;;;;;;21.57;20.37;;;;;;;;;;5093242;28;20435;-84
2022/08/09 06:11:51;;;;;;;21.23;19.77;;;;;;;;;;5093149;28;20411;-83
2022/08/09 06:14:18;;;;;;;21.90;20.40;;;;;;;;;;5093484;28;20819;-84
2022/08/09 06:16:46;;;;;;;20.90;19.70;;;;;;;;;;5093278;28;20457;-84
2022/08/09 06:19:15;;;;;;;21.97;20.57;;;;;;;;;;5091599;28;20441;-84
2022/08/09 06:21:42;;;;;;;20.93;19.70;;;;;;;;;;5093144;28;20469;-83
2022/08/09 06:24:09;;;;;;;21.23;19.93;;;;;;;;;;5093219;28;20416;-81
2022/08/09 06:26:40;;;;;;;21.10;19.57;;;;;;;;;;5093399;28;20406;-83
2022/08/09 06:29:09;;;;;;;23.67;21.10;;;;;;;;;;5083546;28;21028;-89
2022/08/09 06:31:38;;;;;;;20.67;19.47;;;;;;;;;;5078904;28;20456;-88
2022/08/09 06:34:09;;;;;;;20.40;19.20;;;;;;;;;;5071431;28;20458;-87
2022/08/09 06:36:39;;;;;;;20.77;19.53;;;;;;;;;;5072941;28;20434;-84
2022/08/09 06:39:11;;;;;;;22.53;21.13;;;;;;;;;;5073073;28;20468;-85
2022/08/09 06:41:39;;;;;;;20.87;19.47;;;;;;;;;;5073389;28;20494;-83
2022/08/09 06:44:07;;;;;;;22.83;21.43;;;;;;;;;;5072767;28;20762;-83
2022/08/09 06:46:36;;;;;;;21.20;20.00;;;;;;;;;;5072181;28;20535;-84
2022/08/09 06:49:04;;;;;;;21.43;20.00;;;;;;;;;;5072646;28;20453;-84
2022/08/09 06:51:32;;;;;;;21.27;20.00;;;;;;;;;;5072777;28;20419;-82
2022/08/09 06:54:01;;;;;;;21.90;20.60;;;;;;;;;;5073064;28;20460;-85
2022/08/09 06:56:28;;;;;;;21.13;19.83;;;;;;;;;;5071591;28;20446;-85
2022/08/09 06:58:57;;;;;;;21.30;20.07;;;;;;;;;;5072231;28;20418;-83
2022/08/09 07:01:26;;;;;;;20.60;19.40;;;;;;;;;;5074918;28;20415;-84
2022/08/09 07:03:54;;;;;;;21.67;20.30;;;;;;;;;;5076435;28;20459;-82
2022/08/09 07:06:22;;;;;;;23.17;21.50;;;;;;;;;;5076297;28;20411;-84
2022/08/09 07:08:50;;;;;;;22.40;21.10;;;;;;;;;;5075790;28;20903;-85
2022/08/09 07:11:21;;;;;;;21.53;20.07;;;;;;;;;;5076163;28;20434;-86
2022/08/09 07:13:50;;;;;;;24.17;22.33;;;;;;;;;;5075818;28;20455;-85
2022/08/09 07:16:18;;;;;;;21.70;20.50;;;;;;;;;;5076025;28;20562;-85
2022/08/09 07:18:47;;;;;;;21.17;20.00;;;;;;;;;;5075928;28;20415;-84
2022/08/09 07:21:16;;;;;;;22.30;20.90;;;;;;;;;;5075445;28;20534;-84
2022/08/09 07:23:45;;;;;;;21.97;20.67;;;;;;;;;;5075925;28;20908;-83
2022/08/09 07:26:13;;;;;;;22.90;21.10;;;;;;;;;;5074802;28;20924;-83
2022/08/09 07:28:45;;;;;;;22.57;21.17;;;;;;;;;;5075606;28;20411;-84
2022/08/09 07:31:13;;;;;;;23.80;22.07;;;;;;;;;;5075764;28;20427;-84
2022/08/09 07:33:42;;;;;;;23.40;21.90;;;;;;;;;;5075358;28;20513;-83
2022/08/09 07:36:11;;;;;;;22.33;20.90;;;;;;;;;;5075642;28;20419;-85
2022/08/09 07:38:40;;;;;;;22.10;20.80;;;;;;;;;;5075721;28;20502;-85
2022/08/09 07:41:08;;;;;;;21.93;20.73;;;;;;;;;;5075812;28;20486;-84
2022/08/09 07:43:36;;;;;;;21.93;20.50;;;;;;;;;;5075540;28;20445;-84
2022/08/09 07:46:07;;;;;;;22.70;21.20;;;;;;;;;;5076057;28;20431;-84
2022/08/09 07:48:36;;;;;;;22.10;20.80;;;;;;;;;;5075696;28;20451;-84
2022/08/09 07:51:04;;;;;;;23.27;21.97;;;;;;;;;;5075574;28;20404;-86
2022/08/09 07:53:34;;;;;;;21.90;20.53;;;;;;;;;;5075940;28;20461;-84
2022/08/09 07:56:02;;;;;;;22.67;21.17;;;;;;;;;;5075947;28;20485;-85
2022/08/09 07:58:29;;;;;;;23.30;21.90;;;;;;;;;;5075459;28;20465;-85
2022/08/09 08:00:57;;;;;;;21.97;20.77;;;;;;;;;;5073881;28;20428;-84
2022/08/09 08:03:26;;;;;;;24.27;22.57;;;;;;;;;;5074900;28;20416;-85
2022/08/09 08:05:53;;;;;;;23.70;22.40;;;;;;;;;;5074876;28;20423;-85
2022/08/09 08:08:21;;;;;;;23.00;21.80;;;;;;;;;;5075111;28;20452;-86
2022/08/09 08:10:48;;;;;;;22.80;21.60;;;;;;;;;;5074043;28;20413;-82
2022/08/09 08:13:15;;;;;;;23.40;22.00;;;;;;;;;;5074291;28;20465;-81
2022/08/09 08:15:43;;;;;;;23.50;22.20;;;;;;;;;;5074396;28;20496;-82
2022/08/09 08:18:10;;;;;;;22.63;21.33;;;;;;;;;;5074129;28;20997;-81
2022/08/09 08:20:39;;;;;;;23.90;22.50;;;;;;;;;;5074032;28;20423;-81
2022/08/09 08:23:07;;;;;;;24.13;22.47;;;;;;;;;;5074274;28;20459;-82
2022/08/09 08:25:35;;;;;;;23.37;21.97;;;;;;;;;;5073990;28;20861;-82
2022/08/09 08:28:04;;;;;;;23.60;22.20;;;;;;;;;;5074044;28;20415;-81
2022/08/09 08:30:31;;;;;;;23.70;22.10;;;;;;;;;;5072775;28;20825;-81
2022/08/09 08:32:59;;;;;;;22.70;21.50;;;;;;;;;;5074088;28;20416;-82
2022/08/09 08:35:26;;;;;;;22.60;21.40;;;;;;;;;;5073615;28;20491;-82
2022/08/09 08:37:55;;;;;;;22.73;21.43;;;;;;;;;;5073761;28;20420;-82
2022/08/09 08:40:23;;;;;;;23.40;22.00;;;;;;;;;;5073300;28;20492;-82
2022/08/09 08:42:50;;;;;;;23.93;22.43;;;;;;;;;;5073648;28;20423;-81
2022/08/09 08:45:23;;;;;;;24.07;22.47;;;;;;;;;;5073308;28;20404;-82
2022/08/09 08:47:50;;;;;;;24.77;23.00;;;;;;;;;;5073473;28;20420;-81
2022/08/09 08:50:18;;;;;;;24.80;23.47;;;;;;;;;;5073587;28;20475;-81
2022/08/09 08:52:46;;;;;;;24.10;22.70;;;;;;;;;;5073446;28;20469;-82
2022/08/09 08:55:15;;;;;;;24.70;23.20;;;;;;;;;;5072832;28;20993;-82
2022/08/09 08:57:43;;;;;;;25.30;23.90;;;;;;;;;;5072040;28;20427;-81
2022/08/09 09:00:11;;;;;;;24.80;23.23;;;;;;;;;;5072146;28;20533;-80
2022/08/09 09:02:39;;;;;;;23.57;22.23;;;;;;;;;;5073324;28;20506;-82
2022/08/09 09:05:06;;;;;;;24.20;22.70;;;;;;;;;;5073212;28;20936;-81
2022/08/09 09:07:34;;;;;;;23.40;22.00;;;;;;;;;;5071252;28;20433;-81
2022/08/09 09:10:03;;;;;;;23.33;21.93;;;;;;;;;;5072824;28;20419;-81
2022/08/09 09:12:33;;;;;;;24.10;22.70;;;;;;;;;;5077917;28;20429;-81
2022/08/09 09:15:01;;;;;;;24.90;23.00;;;;;;;;;;5093291;28;20458;-80
2022/08/09 09:17:29;;;;;;;23.70;22.00;;;;;;;;;;5093423;28;20430;-80
2022/08/09 09:19:56;;;;;;;24.23;22.67;;;;;;;;;;5093461;28;20423;-82
2022/08/09 09:22:24;;;;;;;24.30;22.90;;;;;;;;;;5093048;28;20451;-81
2022/08/09 09:24:53;;;;;;;24.13;22.83;;;;;;;;;;5091437;28;20416;-81
2022/08/09 09:27:21;;;;;;;24.50;23.00;;;;;;;;;;5093380;28;20415;-81
2022/08/09 09:29:50;;;;;;;25.00;23.60;;;;;;;;;;5093240;28;20813;-82
2022/08/09 09:32:21;;;;;;;24.30;22.97;;;;;;;;;;5093275;28;20421;-81
2022/08/09 09:35:02;;;;;;;24.00;22.60;;;;;;;;;;5093064;28;20457;-84
2022/08/09 09:37:30;;;;;;;24.30;22.80;;;;;;;;;;5093669;28;20425;-83
2022/08/09 09:39:57;;;;;;;24.27;22.97;;;;;;;;;;5092076;28;20462;-83
2022/08/09 09:42:26;;;;;;;23.87;22.40;;;;;;;;;;5092881;28;20936;-83
2022/08/09 09:45:00;;;;;;;24.63;22.93;;;;;;;;;;5093388;28;20418;-83
2022/08/09 09:47:27;;;;;;;24.90;23.40;;;;;;;;;;5092836;28;20404;-83
2022/08/09 09:49:56;;;;;;;23.87;21.93;;;;;;;;;;5091624;28;20435;-83
2022/08/09 09:52:26;;;;;;;23.30;22.00;;;;;;;;;;5093030;28;20424;-83
2022/08/09 09:55:00;;;;;;;24.80;23.20;;;;;;;;;;5092811;28;20833;-82
2022/08/09 09:57:28;;;;;;;24.30;22.93;;;;;;;;;;5092950;28;20435;-83
2022/08/09 09:59:55;;;;;;;24.33;23.03;;;;;;;;;;5093003;28;20436;-81
2022/08/09 10:02:25;;;;;;;24.90;23.33;;;;;;;;;;5092970;28;20418;-83
2022/08/09 10:05:03;;;;;;;26.47;24.67;;;;;;;;;;5093060;28;20436;-84
2022/08/09 10:07:30;;;;;;;24.60;23.23;;;;;;;;;;5094111;28;20415;-86
2022/08/09 10:09:59;;;;;;;23.40;22.10;;;;;;;;;;5093168;28;20934;-85
2022/08/09 10:12:28;;;;;;;23.40;22.00;;;;;;;;;;5093183;28;20908;-86
2022/08/09 10:15:11;;;;;;;25.33;23.57;;;;;;;;;;5092892;28;20483;-86
2022/08/09 10:17:40;;;;;;;25.33;23.13;;;;;;;;;;5093383;28;20441;-86
2022/08/09 10:20:22;;;;;;;24.50;23.00;;;;;;;;;;5093307;28;20482;-85
2022/08/09 10:22:50;;;;;;;25.23;23.33;;;;;;;;;;5093161;28;20440;-84
2022/08/09 10:25:17;;;;;;;23.73;22.33;;;;;;;;;;5093099;28;20433;-84
2022/08/09 10:27:45;;;;;;;25.53;24.13;;;;;;;;;;5093136;28;20415;-85
2022/08/09 10:30:14;;;;;;;25.17;23.57;;;;;;;;;;5092955;28;20418;-84
2022/08/09 10:32:44;;;;;;;24.67;23.07;;;;;;;;;;5093282;28;20422;-84
2022/08/09 10:35:12;;;;;;;24.90;23.30;;;;;;;;;;5094370;28;20453;-84
2022/08/09 10:37:39;;;;;;;26.47;24.67;;;;;;;;;;5097008;28;20921;-84
2022/08/09 10:40:08;;;;;;;27.03;25.17;;;;;;;;;;5096795;28;20450;-84
2022/08/09 10:42:35;;;;;;;25.50;23.90;;;;;;;;;;5096908;28;20454;-85
2022/08/09 10:45:03;;;;;;;25.87;24.37;;;;;;;;;;5096924;28;20460;-86
2022/08/09 10:47:38;;;;;;;25.00;23.40;;;;;;;;;;5096606;28;20467;-84
2022/08/09 10:50:10;;;;;;;24.67;23.13;;;;;;;;;;5096133;28;20411;-85
2022/08/09 10:52:44;;;;;;;24.90;23.00;;;;;;;;;;5097360;28;20457;-88
2022/08/09 10:55:29;;;;;;;25.17;23.23;;;;;;;;;;5097256;28;20501;-86
2022/08/09 10:57:57;;;;;;;24.97;23.37;;;;;;;;;;5097409;28;20835;-87
2022/08/09 11:00:38;;;;;;;24.93;23.37;;;;;;;;;;5097286;28;20441;-88
2022/08/09 11:03:21;;;;;;;25.27;23.67;;;;;;;;;;5094773;28;20452;-81
2022/08/09 11:06:07;;;;;;;24.83;23.13;;;;;;;;;;5096109;28;20441;-88
2022/08/09 11:08:44;;;;;;;25.60;24.10;;;;;;;;;;5086126;28;20436;-87
2022/08/09 11:11:13;;;;;;;25.60;23.90;;;;;;;;;;5095972;28;20419;-83
2022/08/09 11:13:41;;;;;;;25.37;23.87;;;;;;;;;;5095796;28;20430;-83
2022/08/09 11:16:37;;;;;;;25.73;24.00;;;;;;;;;;5095125;28;20491;-81
2022/08/09 11:19:06;;;;;;;24.60;23.00;;;;;;;;;;5032503;28;20421;-84
2022/08/09 11:21:52;;;;;;;25.97;24.03;;;;;;;;;;5032325;28;20411;-82
2022/08/09 11:24:21;;;;;;;26.63;24.77;;;;;;;;;;5024442;28;20429;-92
2022/08/09 11:26:49;;;;;;;24.57;22.97;;;;;;;;;;5034247;28;20437;-91
2022/08/09 11:29:34;;;;;;;25.43;24.03;;;;;;;;;;5032709;28;20941;-85
2022/08/09 11:32:02;;;;;;;26.20;24.60;;;;;;;;;;5032854;28;20447;-84
2022/08/09 11:34:33;;;;;;;25.40;23.83;;;;;;;;;;5032430;28;20410;-84
2022/08/09 11:37:00;;;;;;;25.70;24.10;;;;;;;;;;5032965;28;20523;-84
2022/08/09 11:39:29;;;;;;;25.57;24.10;;;;;;;;;;5032352;28;20483;-84
2022/08/09 11:41:56;;;;;;;25.13;23.70;;;;;;;;;;5032743;28;20426;-84
2022/08/09 11:44:39;;;;;;;26.20;24.70;;;;;;;;;;5032645;28;20501;-84
2022/08/09 11:47:06;;;;;;;25.20;23.80;;;;;;;;;;5031533;28;20434;-84
2022/08/09 11:49:51;;;;;;;25.17;23.70;;;;;;;;;;5032529;28;20446;-84
2022/08/09 11:52:18;;;;;;;26.00;24.40;;;;;;;;;;5022943;28;20960;-84
2022/08/09 11:55:07;;;;;;;27.63;25.27;;;;;;;;;;5061496;28;20557;-84
2022/08/09 11:57:38;;;;;;;24.93;23.43;;;;;;;;;;5094417;28;20460;-84
2022/08/09 12:00:08;;;;;;;25.07;23.67;;;;;;;;;;5094689;28;20429;-83
2022/08/09 12:02:39;;;;;;;24.87;23.27;;;;;;;;;;5094519;28;20447;-84
2022/08/09 12:05:07;;;;;;;24.80;23.20;;;;;;;;;;5094455;28;20400;-84
2022/08/09 12:07:34;;;;;;;25.80;24.10;;;;;;;;;;5094391;28;20483;-84
2022/08/09 12:10:03;;;;;;;25.27;23.67;;;;;;;;;;5094418;28;20465;-84
2022/08/09 12:12:44;;;;;;;25.60;23.90;;;;;;;;;;5094200;28;20924;-84
2022/08/09 12:15:19;;;;;;;25.10;23.70;;;;;;;;;;5093400;28;20528;-84
2022/08/09 12:17:47;;;;;;;24.90;23.43;;;;;;;;;;5094726;28;20408;-85
2022/08/09 12:20:15;;;;;;;25.23;23.73;;;;;;;;;;5094786;28;20436;-83
2022/08/09 12:22:44;;;;;;;25.73;24.13;;;;;;;;;;5092236;28;20443;-82
2022/08/09 12:25:15;;;;;;;25.43;23.93;;;;;;;;;;5085157;28;20993;-84
2022/08/09 12:27:44;;;;;;;26.10;24.20;;;;;;;;;;5094585;28;20829;-85
2022/08/09 12:30:13;;;;;;;25.43;23.93;;;;;;;;;;5094400;28;20802;-83
2022/08/09 12:32:41;;;;;;;26.03;23.90;;;;;;;;;;5094827;28;20489;-85
2022/08/09 12:35:09;;;;;;;25.17;23.67;;;;;;;;;;5094322;28;20819;-89
2022/08/09 12:37:37;;;;;;;24.80;23.40;;;;;;;;;;5095014;28;20486;-86
2022/08/09 12:40:06;;;;;;;24.47;23.03;;;;;;;;;;5094312;28;20476;-85
2022/08/09 12:42:35;;;;;;;25.00;23.50;;;;;;;;;;5094524;28;20411;-83
2022/08/09 12:45:02;;;;;;;24.30;22.80;;;;;;;;;;5095735;28;20420;-82
2022/08/09 12:47:30;;;;;;;24.60;23.00;;;;;;;;;;5094082;28;20464;-81
2022/08/09 12:52:43;;;;;;;24.23;22.83;;;;;;;;;;5094184;28;20391;-82
2022/08/09 12:55:11;;;;;;;24.70;23.07;;;;;;;;;;5093983;28;20448;-84
2022/08/09 12:57:41;;;;;;;24.20;22.80;;;;;;;;;;5092665;28;20408;-83
2022/08/09 13:00:15;;;;;;;25.10;23.37;;;;;;;;;;5093758;28;20420;-81
2022/08/09 13:02:49;;;;;;;26.07;24.57;;;;;;;;;;5093439;28;20825;-82
2022/08/09 13:05:17;;;;;;;25.20;23.50;;;;;;;;;;5093390;28;20489;-82
2022/08/09 13:08:05;;;;;;;24.77;23.27;;;;;;;;;;5093888;28;20473;-84
2022/08/09 13:10:44;;;;;;;25.10;23.30;;;;;;;;;;5094099;28;20417;-87
2022/08/09 13:13:13;;;;;;;23.57;22.07;;;;;;;;;;5094254;28;20450;-81
2022/08/09 13:15:57;;;;;;;24.50;22.60;;;;;;;;;;5093019;28;20451;-81
2022/08/09 13:18:25;;;;;;;23.43;21.90;;;;;;;;;;5094194;28;20513;-83
2022/08/09 13:20:53;;;;;;;24.13;22.73;;;;;;;;;;5093385;28;20417;-82
2022/08/09 13:23:22;;;;;;;24.80;23.13;;;;;;;;;;5093564;28;20452;-81
2022/08/09 13:25:51;;;;;;;24.63;22.90;;;;;;;;;;5093323;28;20432;-77
2022/08/09 13:28:19;;;;;;;24.87;23.40;;;;;;;;;;5093066;28;20403;-81
2022/08/09 13:31:03;;;;;;;25.60;24.10;;;;;;;;;;5093283;28;20415;-80
2022/08/09 13:33:30;;;;;;;26.10;24.40;;;;;;;;;;5093693;28;20463;-81
2022/08/09 13:35:58;;;;;;;25.17;23.63;;;;;;;;;;5093427;28;20845;-81
2022/08/09 13:38:25;;;;;;;25.87;24.17;;;;;;;;;;5093411;28;20412;-87
2022/08/09 13:40:57;;;;;;;25.70;24.00;;;;;;;;;;5093047;28;20546;-80
2022/08/09 13:43:26;;;;;;;24.50;23.10;;;;;;;;;;5092845;28;20438;-82
2022/08/09 13:45:53;;;;;;;23.87;22.47;;;;;;;;;;5093194;28;20415;-80
2022/08/09 13:48:21;;;;;;;24.07;22.57;;;;;;;;;;5092839;28;20991;-86
2022/08/09 13:50:48;;;;;;;24.40;22.90;;;;;;;;;;5094325;28;20437;-90
2022/08/09 13:53:16;;;;;;;24.23;22.73;;;;;;;;;;5093144;28;20437;-86
2022/08/09 13:55:45;;;;;;;24.93;23.50;;;;;;;;;;5092644;28;20535;-82
2022/08/09 13:58:12;;;;;;;24.77;23.37;;;;;;;;;;5092969;28;20423;-84
2022/08/09 14:00:41;;;;;;;25.53;23.93;;;;;;;;;;5093189;28;20413;-84
2022/08/09 14:03:09;;;;;;;24.40;23.00;;;;;;;;;;5092442;28;20460;-81
2022/08/09 14:05:36;;;;;;;24.67;23.27;;;;;;;;;;5091181;28;20785;-80
2022/08/09 14:08:05;;;;;;;25.20;23.70;;;;;;;;;;5091977;28;21004;-80
2022/08/09 14:10:33;;;;;;;25.40;23.90;;;;;;;;;;5096417;28;20437;-86
2022/08/09 14:13:02;;;;;;;24.93;23.43;;;;;;;;;;5097210;28;20449;-88
2022/08/09 14:15:29;;;;;;;24.00;22.60;;;;;;;;;;5097376;28;20843;-81
2022/08/09 14:17:59;;;;;;;24.60;23.20;;;;;;;;;;5096908;28;20955;-81
2022/08/09 14:20:29;;;;;;;24.40;23.00;;;;;;;;;;5096617;28;20442;-81
2022/08/09 14:22:57;;;;;;;23.87;22.27;;;;;;;;;;5096755;28;20440;-82
2022/08/09 14:25:25;;;;;;;24.07;22.57;;;;;;;;;;5096652;28;20921;-83
2022/08/09 14:27:52;;;;;;;23.97;22.57;;;;;;;;;;5096971;28;20788;-84
2022/08/09 14:30:19;;;;;;;24.97;23.33;;;;;;;;;;5096381;28;20421;-83